Time;durP1;ratioP1;P1;durP2;ratioP2;P2;SDS_P1;SDS_P2;PMS_P1;PMS_P2;Temp;Humidity;BMP_temperature;BMP_pressure;BME280_temperature;BME280_humidity;BME280_pressure;Samples;Min_cycle;Max_cycle;Signal;HPM_P1;HPM_P2
2022/01/18 00:00:29;;;;;;;25.10;10.20;;;;;;;0.27;66.48;99926.05;221226;1276;140865;-61
2022/01/18 00:05:50;;;;;;;30.00;11.00;;;;;;;0.35;66.62;99936.64;220891;1276;140042;-58
2022/01/18 00:10:53;;;;;;;30.30;11.00;;;;;;;0.46;66.80;99937.63;221348;1275;140144;-60
2022/01/18 00:26:27;;;;;;;35.80;13.40;;;;;;;0.47;66.76;99955.42;221351;1276;139209;-59
2022/01/18 00:31:48;;;;;;;31.10;12.60;;;;;;;0.40;66.82;99962.45;221354;1276;139652;-60
2022/01/18 00:41:55;;;;;;;28.60;10.60;;;;;;;0.31;66.95;99974.73;221281;1277;139898;-59
2022/01/18 00:46:58;;;;;;;31.10;9.60;;;;;;;0.36;67.04;99991.63;221313;1276;140338;-57
2022/01/18 00:52:04;;;;;;;31.80;11.80;;;;;;;0.36;66.93;99999.13;221176;1276;139106;-60
2022/01/18 00:57:13;;;;;;;35.50;12.50;;;;;;;0.32;67.07;100007.88;221141;1277;139148;-60
2022/01/18 01:02:17;;;;;;;35.30;11.80;;;;;;;0.32;67.32;100009.98;220919;1276;140354;-60
2022/01/18 01:07:22;;;;;;;31.00;10.30;;;;;;;0.28;67.15;100015.74;221285;1276;139340;-61
2022/01/18 01:12:26;;;;;;;29.70;10.80;;;;;;;0.26;67.19;100015.23;220910;1276;139113;-59
2022/01/18 01:17:40;;;;;;;27.10;9.90;;;;;;;0.26;67.45;100027.45;220920;1276;139854;-60
2022/01/18 01:44:23;;;;;;;20.80;7.40;;;;;;;0.45;67.65;100037.48;221288;1276;139840;-61
2022/01/18 01:49:27;;;;;;;21.00;6.90;;;;;;;0.48;67.63;100025.77;221571;1276;139076;-60
2022/01/18 01:54:30;;;;;;;20.80;7.60;;;;;;;0.52;67.62;100033.95;221257;1276;140717;-60
2022/01/18 01:59:33;;;;;;;24.80;7.80;;;;;;;0.56;67.65;100038.81;221330;1276;139430;-58
2022/01/18 02:04:38;;;;;;;;;;;;;;;0.63;67.70;100034.58;220652;1276;138972;-61
2022/01/18 02:09:41;;;;;;;13.30;4.50;;;;;;;0.64;67.59;100034.75;221264;1275;125126;-59
2022/01/18 02:14:54;;;;;;;13.60;5.20;;;;;;;0.65;67.53;100044.71;221332;1276;139756;-61
2022/01/18 02:25:24;;;;;;;17.10;5.70;;;;;;;0.82;67.45;100042.34;221254;1276;139642;-60
2022/01/18 02:30:27;;;;;;;16.10;5.30;;;;;;;0.86;67.23;100040.22;221381;1276;139024;-60
2022/01/18 02:35:35;;;;;;;20.20;5.80;;;;;;;0.87;67.26;100038.29;221359;1276;139158;-60
2022/01/18 02:40:38;;;;;;;14.70;5.70;;;;;;;0.86;67.30;100041.11;221252;1276;139707;-60
2022/01/18 02:45:41;;;;;;;19.00;5.60;;;;;;;0.87;67.34;100050.33;221360;1276;139126;-61
2022/01/18 02:50:45;;;;;;;14.90;4.70;;;;;;;0.88;67.30;100053.14;221555;1276;139196;-60
2022/01/18 02:55:56;;;;;;;15.30;5.40;;;;;;;0.87;67.17;100061.16;221311;1275;140341;-61
2022/01/18 03:06:08;;;;;;;19.50;6.00;;;;;;;0.89;67.17;100067.27;221006;1276;138681;-59
2022/01/18 03:11:11;;;;;;;23.60;5.80;;;;;;;0.91;67.24;100067.95;221332;1276;140292;-59
2022/01/18 03:16:14;;;;;;;14.60;5.90;;;;;;;0.90;67.18;100066.75;221377;1276;139466;-58
2022/01/18 03:21:17;;;;;;;16.30;6.20;;;;;;;0.88;67.17;100070.25;221487;1276;139644;-58
2022/01/18 03:26:30;;;;;;;19.90;6.00;;;;;;;0.85;67.27;100077.77;221357;1276;139969;-58
2022/01/18 03:31:33;;;;;;;12.80;5.00;;;;;;;0.80;67.20;100079.21;221241;1276;139481;-61
2022/01/18 03:36:36;;;;;;;16.80;5.30;;;;;;;0.79;67.21;100081.83;221300;1275;139793;-60
2022/01/18 03:41:40;;;;;;;16.80;5.60;;;;;;;0.80;67.32;100086.02;221271;1277;139156;-58
2022/01/18 03:46:43;;;;;;;17.60;5.10;;;;;;;0.82;67.25;100076.05;221438;1276;139370;-59
2022/01/18 03:51:46;;;;;;;18.10;5.20;;;;;;;0.81;67.13;100078.85;221345;1276;139169;-60
2022/01/18 03:56:49;;;;;;;19.20;5.60;;;;;;;0.78;67.16;100092.14;221489;1276;141492;-59
2022/01/18 04:01:52;;;;;;;19.50;6.00;;;;;;;0.77;67.28;100086.91;221400;1277;139056;-60
2022/01/18 04:06:55;;;;;;;17.20;5.20;;;;;;;0.75;67.25;100096.17;221048;1276;321417;-58
2022/01/18 04:11:59;;;;;;;18.10;6.20;;;;;;;0.70;67.21;100112.44;221237;1275;138980;-58
2022/01/18 04:17:11;;;;;;;15.00;4.90;;;;;;;0.74;67.29;100119.77;221375;1275;139973;-60
2022/01/18 04:27:41;;;;;;;17.00;5.60;;;;;;;0.82;67.53;100113.60;220827;1277;138890;-59
2022/01/18 04:32:45;;;;;;;16.10;4.80;;;;;;;0.81;67.42;100120.94;221481;1275;140629;-59
2022/01/18 04:37:48;;;;;;;17.00;5.60;;;;;;;0.76;67.34;100131.63;221291;1276;140088;-59
2022/01/18 04:53:19;;;;;;;21.00;5.00;;;;;;;0.67;67.38;100155.77;221308;1274;139288;-58
2022/01/18 04:58:25;;;;;;;13.30;4.50;;;;;;;0.70;67.47;100152.78;221346;1275;161828;-59
2022/01/18 05:03:29;;;;;;;16.70;5.20;;;;;;;0.70;67.32;100154.70;221526;1276;138788;-61
2022/01/18 05:08:32;;;;;;;15.20;5.30;;;;;;;0.71;67.52;100153.84;221109;1276;140000;-61
2022/01/18 05:24:29;;;;;;;15.30;5.90;;;;;;;0.79;67.68;100175.27;221145;1276;139252;-58
2022/01/18 05:29:32;;;;;;;20.00;5.70;;;;;;;0.76;67.39;100176.86;221295;1276;139803;-60
2022/01/18 05:34:35;;;;;;;18.60;5.80;;;;;;;0.72;67.45;100173.39;220982;1276;139917;-58
2022/01/18 05:39:38;;;;;;;20.00;5.50;;;;;;;0.69;67.44;100180.89;221158;1276;139446;-61
2022/01/18 05:44:41;;;;;;;17.10;5.30;;;;;;;0.70;67.62;100187.36;221529;1275;139196;-61
2022/01/18 05:49:44;;;;;;;17.20;6.10;;;;;;;0.70;67.38;100190.84;221412;1276;139528;-57
2022/01/18 05:54:48;;;;;;;18.00;5.80;;;;;;;0.68;67.55;100191.21;221353;1276;139549;-59
2022/01/18 05:59:54;;;;;;;23.50;9.10;;;;;;;0.65;67.51;100186.68;221246;1276;139141;-61
2022/01/18 06:10:19;;;;;;;15.60;5.30;;;;;;;0.63;67.71;100194.71;221380;1275;139583;-61
2022/01/18 06:15:22;;;;;;;15.00;4.90;;;;;;;0.67;67.66;100200.46;221351;1276;139706;-59
2022/01/18 06:20:25;;;;;;;20.90;5.20;;;;;;;0.71;67.58;100202.38;221243;1275;139461;-60
2022/01/18 06:25:28;;;;;;;16.70;5.00;;;;;;;0.74;67.53;100200.80;221328;1276;139328;-59
2022/01/18 06:30:31;;;;;;;13.60;4.30;;;;;;;0.78;67.46;100204.27;221308;1276;139819;-60
2022/01/18 06:35:35;;;;;;;13.20;4.80;;;;;;;0.76;67.43;100207.42;221126;1276;138981;-60
2022/01/18 06:40:39;;;;;;;16.10;4.40;;;;;;;0.76;67.40;100218.95;221323;1276;140196;-59
2022/01/18 06:45:42;;;;;;;12.60;4.50;;;;;;;0.80;67.33;100229.42;221361;1276;139834;-59
2022/01/18 06:50:45;;;;;;;17.70;4.50;;;;;;;0.86;67.48;100240.93;221357;1276;139505;-59
2022/01/18 06:55:52;;;;;;;13.70;4.40;;;;;;;0.93;67.42;100247.73;221245;1275;139193;-59
2022/01/18 07:00:56;;;;;;;17.00;4.90;;;;;;;0.96;67.38;100273.40;221329;1275;140214;-60
2022/01/18 07:05:59;;;;;;;13.80;4.50;;;;;;;0.97;67.29;100278.10;221293;1277;139188;-58
2022/01/18 07:11:04;;;;;;;15.00;5.00;;;;;;;0.99;67.20;100280.54;221379;1276;140320;-60
2022/01/18 07:16:07;;;;;;;7.30;3.10;;;;;;;1.01;67.07;100282.63;221160;1276;139312;-61
2022/01/18 07:21:10;;;;;;;12.00;4.30;;;;;;;1.01;67.25;100287.54;221339;1276;138954;-57
2022/01/18 07:26:13;;;;;;;13.10;4.20;;;;;;;1.05;67.22;100291.88;221127;1276;139992;-60
2022/01/18 07:31:16;;;;;;;17.00;4.30;;;;;;;1.09;67.21;100299.40;221169;1276;139535;-59
2022/01/18 07:36:19;;;;;;;12.90;4.40;;;;;;;1.11;67.18;100303.05;221402;1276;140027;-60
2022/01/18 07:41:22;;;;;;;17.70;4.30;;;;;;;1.12;66.99;100314.41;221371;1275;139519;-61
2022/01/18 07:46:25;;;;;;;12.20;4.50;;;;;;;1.08;66.87;100321.77;221339;1276;139475;-60
2022/01/18 07:51:29;;;;;;;16.70;4.70;;;;;;;1.07;66.84;100325.25;221527;1275;139112;-60
2022/01/18 07:56:31;;;;;;;10.10;3.60;;;;;;;1.12;67.08;100336.25;221324;1276;138993;-60
2022/01/18 08:01:47;;;;;;;8.10;3.30;;;;;;;1.19;67.08;100337.10;221401;1276;140740;-60
2022/01/18 08:06:51;;;;;;;14.90;4.20;;;;;;;1.27;66.99;100340.74;221344;1277;139199;-62
2022/01/18 08:11:54;;;;;;;13.60;4.50;;;;;;;1.36;67.17;100348.93;221222;1275;139278;-61
2022/01/18 08:17:00;;;;;;;13.10;4.00;;;;;;;1.44;67.13;100362.71;221172;1276;139790;-61
2022/01/18 08:22:03;;;;;;;14.70;4.50;;;;;;;1.51;66.86;100368.11;221374;1276;138770;-61
2022/01/18 08:27:07;;;;;;;15.70;4.70;;;;;;;1.59;66.84;100381.55;221461;1277;139655;-58
2022/01/18 08:32:10;;;;;;;14.80;4.20;;;;;;;1.64;66.81;100394.13;221360;1276;139843;-62
2022/01/18 08:37:13;;;;;;;9.90;4.30;;;;;;;1.72;66.70;100403.36;221295;1276;141453;-61
2022/01/18 08:42:16;;;;;;;17.30;4.40;;;;;;;1.78;66.54;100416.98;221254;1276;139456;-61
2022/01/18 08:47:19;;;;;;;11.60;4.00;;;;;;;1.80;66.45;100428.70;221397;1276;139838;-61
2022/01/18 08:52:22;;;;;;;15.30;4.30;;;;;;;1.83;66.32;100437.27;221098;1276;139884;-60
2022/01/18 08:57:26;;;;;;;14.20;4.60;;;;;;;1.93;66.35;100448.95;221402;1275;140549;-61
2022/01/18 09:02:29;;;;;;;14.80;5.40;;;;;;;1.97;66.25;100455.92;221140;1276;139356;-59
2022/01/18 09:07:34;;;;;;;13.70;4.70;;;;;;;2.00;66.14;100458.89;221372;1276;139165;-57
2022/01/18 09:12:38;;;;;;;17.60;5.10;;;;;;;2.01;66.07;100464.31;221296;1276;139790;-59
2022/01/18 09:17:41;;;;;;;14.30;4.30;;;;;;;2.05;65.99;100471.13;221209;1276;139298;-60
2022/01/18 09:22:48;;;;;;;15.00;4.40;;;;;;;2.06;65.91;100469.71;221183;1276;139312;-62
2022/01/18 09:27:53;;;;;;;12.70;4.70;;;;;;;2.08;65.88;100472.00;221349;1276;139474;-62
2022/01/18 09:32:58;;;;;;;15.90;4.80;;;;;;;2.07;65.91;100473.91;221344;1276;139095;-61
2022/01/18 09:38:03;;;;;;;12.10;4.10;;;;;;;2.06;65.93;100467.63;221389;1274;139219;-57
2022/01/18 09:43:12;;;;;;;10.20;4.20;;;;;;;2.09;66.07;100469.86;220899;1277;139483;-62
2022/01/18 09:48:16;;;;;;;12.00;4.40;;;;;;;2.11;65.86;100481.60;221125;1277;139681;-60
2022/01/18 09:53:19;;;;;;;12.00;4.50;;;;;;;2.14;65.89;100487.20;221221;1276;139861;-58
2022/01/18 09:58:22;;;;;;;11.20;4.50;;;;;;;2.17;65.96;100487.35;221322;1275;139223;-60
2022/01/18 10:03:27;;;;;;;13.70;4.80;;;;;;;2.21;66.12;100487.16;221484;1276;138802;-61
2022/01/18 10:08:31;;;;;;;;;;;;;;;2.26;66.07;100492.91;221243;1277;138648;-59
2022/01/18 10:13:36;;;;;;;12.40;3.90;;;;;;;2.26;65.82;100493.08;221429;1276;125197;-62
2022/01/18 10:18:48;;;;;;;13.60;4.80;;;;;;;2.25;65.73;100494.48;221182;1276;138739;-59
2022/01/18 10:24:08;;;;;;;17.10;5.10;;;;;;;2.20;65.65;100498.54;221300;1276;139104;-63
2022/01/18 10:29:13;;;;;;;13.40;4.60;;;;;;;2.20;65.68;100501.87;221253;1277;139527;-62
2022/01/18 10:34:24;;;;;;;14.60;5.00;;;;;;;2.22;65.71;100513.95;221391;1276;139194;-58
2022/01/18 10:39:31;;;;;;;13.90;5.30;;;;;;;2.22;65.72;100513.05;221321;1276;140032;-60
2022/01/18 10:44:34;;;;;;;17.20;6.00;;;;;;;2.28;65.61;100519.88;221351;1276;139547;-63
2022/01/18 10:49:46;;;;;;;11.50;5.00;;;;;;;2.33;65.54;100519.48;221292;1276;139006;-62
2022/01/18 10:54:57;;;;;;;13.90;5.60;;;;;;;2.38;65.71;100521.39;221356;1276;140020;-59
2022/01/18 11:00:00;;;;;;;13.80;5.10;;;;;;;2.46;65.59;100527.30;221518;1276;139450;-60
2022/01/18 11:05:26;;;;;;;13.80;4.90;;;;;;;2.42;65.33;100524.87;221203;1276;140837;-62
2022/01/18 11:10:41;;;;;;;14.40;5.50;;;;;;;2.42;65.46;100529.78;221315;1276;139425;-61
2022/01/18 11:16:13;;;;;;;14.00;5.30;;;;;;;2.48;65.47;100529.40;221406;1276;139496;-61
2022/01/18 11:21:19;;;;;;;10.70;4.70;;;;;;;2.53;65.38;100534.10;221591;1276;138859;-61
2022/01/18 11:26:24;;;;;;;12.00;5.50;;;;;;;2.60;65.28;100536.17;221256;1276;139196;-62
2022/01/18 11:31:27;;;;;;;16.20;5.90;;;;;;;2.61;65.04;100527.92;221354;1276;139691;-61
2022/01/18 11:36:38;;;;;;;13.50;5.10;;;;;;;2.63;64.82;100534.05;221175;1276;233747;-60
2022/01/18 11:41:42;;;;;;;15.80;5.30;;;;;;;2.62;64.73;100540.90;221409;1275;138846;-62
2022/01/18 11:46:55;;;;;;;11.80;5.30;;;;;;;2.67;64.74;100544.20;221319;1276;139321;-62
2022/01/18 11:52:10;;;;;;;17.70;5.60;;;;;;;2.74;64.76;100544.15;221506;1276;139650;-59
2022/01/18 11:57:15;;;;;;;14.30;4.90;;;;;;;2.83;64.63;100548.65;221479;1276;138888;-61
2022/01/18 12:02:37;;;;;;;11.50;5.30;;;;;;;2.83;64.18;100541.64;221395;1276;139823;-59
2022/01/18 12:07:42;;;;;;;9.90;4.80;;;;;;;2.79;64.17;100537.83;221327;1275;139077;-61
2022/01/18 12:12:49;;;;;;;18.80;6.30;;;;;;;2.78;64.12;100542.02;221373;1276;139253;-57
2022/01/18 12:18:15;;;;;;;15.40;5.90;;;;;;;2.77;64.05;100551.33;221362;1277;139749;-60
2022/01/18 12:23:25;;;;;;;14.00;5.90;;;;;;;2.73;63.89;100553.27;221353;1276;139273;-61
2022/01/18 12:33:59;;;;;;;15.00;5.60;;;;;;;2.78;63.89;100572.17;221180;1277;139149;-61
2022/01/18 12:39:03;;;;;;;19.70;6.10;;;;;;;2.74;63.82;100583.75;221669;1276;139360;-59
2022/01/18 12:44:24;;;;;;;12.80;6.40;;;;;;;2.72;63.61;100588.33;221160;1277;139449;-58
2022/01/18 12:49:30;;;;;;;14.60;5.60;;;;;;;2.68;63.60;100592.90;221141;1276;139266;-62
2022/01/18 12:54:48;;;;;;;13.30;5.70;;;;;;;2.65;63.64;100596.05;221219;1276;139021;-62
2022/01/18 13:00:00;;;;;;;15.50;5.60;;;;;;;2.65;63.61;100600.98;221334;1277;139544;-62
2022/01/18 13:05:07;;;;;;;13.10;5.60;;;;;;;2.68;63.47;100602.71;221334;1276;139456;-61
2022/01/18 13:10:10;;;;;;;12.10;5.10;;;;;;;2.75;63.53;100601.98;221276;1277;140041;-60
2022/01/18 13:15:23;;;;;;;13.60;5.60;;;;;;;2.75;63.15;100600.75;221435;1277;143232;-61
2022/01/18 13:26:02;;;;;;;10.30;5.30;;;;;;;2.72;62.97;100605.33;221243;1276;142069;-61
2022/01/18 13:31:16;;;;;;;14.00;5.50;;;;;;;2.76;62.97;100604.25;221244;1275;139242;-60
2022/01/18 13:36:21;;;;;;;14.70;5.40;;;;;;;2.77;62.79;100606.52;221357;1275;139029;-60
2022/01/18 13:41:24;;;;;;;12.50;5.50;;;;;;;2.71;62.50;100606.20;221391;1277;138631;-59
2022/01/18 13:46:29;;;;;;;13.50;5.50;;;;;;;2.69;62.58;100604.64;221348;1277;139625;-61
2022/01/18 13:51:32;;;;;;;15.00;6.30;;;;;;;2.68;62.57;100610.59;221440;1277;139632;-62
2022/01/18 13:56:47;;;;;;;11.80;5.90;;;;;;;2.66;62.37;100620.59;221323;1275;140881;-63
2022/01/18 14:01:50;;;;;;;11.30;5.50;;;;;;;2.56;62.13;100621.86;221338;1277;138966;-61
2022/01/18 14:06:56;;;;;;;11.50;5.40;;;;;;;2.53;62.33;100642.01;221410;1276;139542;-61
2022/01/18 14:11:59;;;;;;;13.80;6.50;;;;;;;2.49;62.10;100651.84;221331;1275;139609;-61
2022/01/18 14:17:05;;;;;;;12.00;5.30;;;;;;;2.44;62.21;100653.09;221351;1276;139637;-59
2022/01/18 14:22:27;;;;;;;13.50;5.60;;;;;;;2.42;62.15;100653.79;221430;1276;139327;-59
2022/01/18 14:27:38;;;;;;;10.50;5.10;;;;;;;2.42;62.06;100656.23;221267;1277;138814;-61
2022/01/18 14:32:42;;;;;;;13.80;5.80;;;;;;;2.39;62.09;100662.38;221274;1276;139293;-61
2022/01/18 14:37:59;;;;;;;15.10;6.90;;;;;;;2.38;62.21;100672.19;221346;1276;140135;-60
2022/01/18 14:43:13;;;;;;;17.80;8.10;;;;;;;2.39;62.50;100676.04;221485;1276;139334;-60
2022/01/18 14:48:16;;;;;;;18.20;8.30;;;;;;;2.39;62.65;100689.35;221314;1276;139085;-60
2022/01/18 14:53:19;;;;;;;17.80;8.40;;;;;;;2.37;62.77;100702.66;221368;1276;139018;-61
2022/01/18 14:58:22;;;;;;;19.40;8.50;;;;;;;2.31;62.76;100699.69;221250;1276;139899;-59
2022/01/18 15:03:25;;;;;;;20.60;8.90;;;;;;;2.30;62.94;100700.56;221460;1275;140721;-61
2022/01/18 15:08:28;;;;;;;18.50;8.10;;;;;;;2.30;62.88;100710.90;221382;1276;139638;-60
2022/01/18 15:13:32;;;;;;;13.80;7.20;;;;;;;2.29;62.83;100721.41;221344;1276;139087;-59
2022/01/18 15:18:35;;;;;;;13.80;6.90;;;;;;;2.32;62.79;100727.02;221451;1276;140683;-60
2022/01/18 15:23:38;;;;;;;20.10;6.80;;;;;;;2.31;62.67;100730.86;221318;1276;139219;-61
2022/01/18 15:28:41;;;;;;;15.20;7.00;;;;;;;2.27;62.49;100730.35;221410;1276;139554;-61
2022/01/18 15:33:44;;;;;;;17.10;6.30;;;;;;;2.26;62.44;100734.38;221466;1276;138496;-60
2022/01/18 15:38:47;;;;;;;16.50;7.70;;;;;;;2.24;62.52;100737.17;221279;1276;139713;-59
2022/01/18 15:43:50;;;;;;;20.00;8.10;;;;;;;2.25;62.61;100741.04;221587;1276;139402;-63
2022/01/18 15:48:53;;;;;;;21.70;7.90;;;;;;;2.24;62.60;100733.86;221390;1276;138821;-61
2022/01/18 15:53:57;;;;;;;17.20;7.90;;;;;;;2.26;62.57;100726.50;221259;1276;139993;-60
2022/01/18 15:59:00;;;;;;;24.10;8.90;;;;;;;2.29;62.65;100731.75;221446;1276;139392;-57
2022/01/18 16:04:04;;;;;;;19.00;8.00;;;;;;;2.33;62.60;100736.27;221419;1276;138956;-56
2022/01/18 16:09:07;;;;;;;21.30;8.80;;;;;;;2.35;62.46;100744.70;221288;1276;185095;-59
2022/01/18 16:14:10;;;;;;;21.00;9.10;;;;;;;2.34;62.50;100747.86;221365;1274;140586;-58
2022/01/18 16:19:14;;;;;;;18.60;9.50;;;;;;;2.34;62.58;100755.91;221291;1275;140606;-57
2022/01/18 16:24:17;;;;;;;22.10;11.80;;;;;;;2.33;62.55;100765.02;221382;1275;139142;-58
2022/01/18 16:29:21;;;;;;;30.40;12.40;;;;;;;2.29;62.79;100772.55;221193;1276;140459;-54
2022/01/18 16:34:24;;;;;;;24.30;11.80;;;;;;;2.32;62.86;100769.40;221056;1276;141199;-60
2022/01/18 16:39:27;;;;;;;24.30;11.90;;;;;;;2.36;62.92;100768.86;221311;1276;140460;-59
2022/01/18 16:44:30;;;;;;;27.90;12.70;;;;;;;2.35;62.90;100769.75;221343;1276;140044;-58
2022/01/18 16:49:35;;;;;;;25.70;13.90;;;;;;;2.33;62.99;100783.05;221240;1277;140776;-60
2022/01/18 16:54:39;;;;;;;23.90;11.20;;;;;;;2.35;62.98;100782.70;221368;1275;139251;-60
2022/01/18 16:59:42;;;;;;;21.00;9.80;;;;;;;2.36;62.76;100774.48;221208;1276;139377;-59
2022/01/18 17:04:45;;;;;;;19.00;9.80;;;;;;;2.32;62.57;100777.98;220989;1276;138878;-59
2022/01/18 17:09:48;;;;;;;23.40;10.50;;;;;;;2.30;62.41;100783.92;221483;1274;139453;-58
2022/01/18 17:14:51;;;;;;;21.40;10.90;;;;;;;2.30;62.60;100787.25;221278;1274;139303;-61
2022/01/18 17:19:58;;;;;;;27.10;12.40;;;;;;;2.30;62.69;100787.95;221287;1276;140002;-59
2022/01/18 17:25:01;;;;;;;25.10;11.80;;;;;;;2.31;62.69;100790.77;221525;1276;139175;-57
2022/01/18 17:30:05;;;;;;;27.50;12.90;;;;;;;2.30;62.70;100790.58;221322;1276;139094;-57
2022/01/18 17:35:08;;;;;;;27.10;12.60;;;;;;;2.29;62.67;100780.60;221298;1276;141538;-60
2022/01/18 17:40:12;;;;;;;29.30;15.30;;;;;;;2.26;62.60;100780.61;221339;1276;139437;-59
2022/01/18 17:45:18;;;;;;;32.50;15.50;;;;;;;2.22;62.81;100775.18;221469;1276;139510;-57
2022/01/18 17:50:21;;;;;;;26.60;14.00;;;;;;;2.19;62.76;100786.20;221401;1275;139161;-61
2022/01/18 17:55:24;;;;;;;23.20;12.30;;;;;;;2.19;62.97;100797.75;221105;1275;140098;-59
2022/01/18 18:00:27;;;;;;;23.50;10.50;;;;;;;2.21;62.79;100793.56;221209;1276;139624;-60
2022/01/18 18:05:31;;;;;;;25.90;11.70;;;;;;;2.21;62.73;100786.20;221243;1276;139773;-59
2022/01/18 18:10:34;;;;;;;24.60;10.90;;;;;;;2.22;62.69;100776.05;221462;1273;139673;-59
2022/01/18 18:15:39;;;;;;;25.20;11.60;;;;;;;2.19;62.53;100780.95;221418;1274;140170;-58
2022/01/18 18:20:43;;;;;;;31.30;13.30;;;;;;;2.20;62.62;100787.95;221223;1275;139461;-60
2022/01/18 18:25:46;;;;;;;29.70;13.50;;;;;;;2.23;62.76;100800.73;221144;1276;139622;-59
2022/01/18 18:30:50;;;;;;;33.30;14.80;;;;;;;2.24;62.69;100797.77;221301;1276;139513;-60
2022/01/18 18:35:57;;;;;;;31.00;14.20;;;;;;;2.22;62.67;100788.65;221322;1274;140552;-60
2022/01/18 18:41:03;;;;;;;29.90;12.80;;;;;;;2.17;62.60;100787.08;221546;1275;139475;-58
2022/01/18 18:46:08;;;;;;;24.90;12.50;;;;;;;2.16;62.62;100796.02;221440;1276;140454;-58
2022/01/18 18:51:11;;;;;;;25.20;11.50;;;;;;;2.15;62.81;100776.40;221408;1276;140028;-60
2022/01/18 18:56:15;;;;;;;26.90;12.30;;;;;;;2.13;62.81;100755.39;221300;1276;139604;-58
2022/01/18 19:01:28;;;;;;;21.60;10.10;;;;;;;2.12;62.72;100768.69;221203;1275;139266;-61
2022/01/18 19:06:31;;;;;;;19.10;10.00;;;;;;;2.07;62.67;100788.31;221301;1274;140630;-60
2022/01/18 19:11:34;;;;;;;21.70;9.30;;;;;;;2.01;62.48;100800.02;221265;1275;139123;-59
2022/01/18 19:16:38;;;;;;;19.60;8.20;;;;;;;1.97;62.56;100821.90;221271;1276;138944;-59
2022/01/18 19:21:43;;;;;;;17.60;7.70;;;;;;;1.97;62.54;100822.08;221348;1276;140214;-59
2022/01/18 19:26:46;;;;;;;23.80;9.50;;;;;;;1.91;62.52;100805.09;220844;1277;139894;-60
2022/01/18 19:31:49;;;;;;;21.40;8.10;;;;;;;1.85;62.58;100801.05;220941;1276;139845;-59
2022/01/18 19:36:52;;;;;;;22.50;9.10;;;;;;;1.83;62.62;100813.63;221290;1275;139232;-58
2022/01/18 19:41:56;;;;;;;19.20;8.50;;;;;;;1.79;62.54;100819.06;221345;1276;138997;-60
2022/01/18 19:46:59;;;;;;;20.60;9.00;;;;;;;1.73;62.69;100823.77;221283;1276;140926;-58
2022/01/18 19:52:03;;;;;;;23.20;9.20;;;;;;;1.71;62.66;100818.52;221166;1275;139280;-60
2022/01/18 19:57:06;;;;;;;18.80;8.10;;;;;;;1.74;62.93;100822.54;221525;1276;138828;-59
2022/01/18 20:02:09;;;;;;;21.50;7.30;;;;;;;1.73;62.67;100821.48;221316;1275;139587;-60
2022/01/18 20:07:12;;;;;;;16.80;6.90;;;;;;;1.70;62.66;100824.81;221353;1276;139447;-60
2022/01/18 20:12:16;;;;;;;20.50;8.30;;;;;;;1.69;62.71;100832.50;221314;1274;138696;-60
2022/01/18 20:17:19;;;;;;;16.60;7.40;;;;;;;1.66;62.75;100835.99;221268;1276;139568;-60
2022/01/18 20:22:22;;;;;;;16.80;7.10;;;;;;;1.65;62.75;100827.24;221374;1277;139326;-57
2022/01/18 20:27:34;;;;;;;18.50;7.40;;;;;;;1.61;62.76;100815.16;221380;1276;138970;-61
2022/01/18 20:32:38;;;;;;;21.20;7.50;;;;;;;1.58;62.76;100793.98;221212;1276;139600;-60
2022/01/18 20:37:41;;;;;;;20.50;8.00;;;;;;;1.56;62.75;100788.73;221313;1276;139218;-59
2022/01/18 20:48:07;;;;;;;17.70;8.20;;;;;;;1.66;62.71;100789.98;221393;1275;140087;-60
2022/01/18 20:53:15;;;;;;;21.50;8.40;;;;;;;1.72;62.80;100799.61;221325;1275;139722;-60
2022/01/18 20:58:19;;;;;;;19.80;8.30;;;;;;;1.71;62.66;100802.06;221371;1275;139733;-60
2022/01/18 21:03:22;;;;;;;25.40;9.70;;;;;;;1.65;62.63;100807.48;221428;1276;139292;-59
2022/01/18 21:08:25;;;;;;;22.20;9.20;;;;;;;1.64;62.78;100802.76;221095;1276;140517;-61
2022/01/18 21:13:28;;;;;;;22.40;9.10;;;;;;;1.63;62.71;100785.27;221335;1275;139228;-59
2022/01/18 21:18:32;;;;;;;26.90;10.90;;;;;;;1.64;62.85;100786.48;221468;1276;139827;-59
2022/01/18 21:23:35;;;;;;;25.00;10.20;;;;;;;1.66;62.86;100794.71;221372;1276;140223;-60
2022/01/18 21:28:38;;;;;;;25.40;11.20;;;;;;;1.64;62.75;100792.44;221196;1276;142680;-61
2022/01/18 21:33:41;;;;;;;27.50;11.60;;;;;;;1.66;62.87;100789.29;221429;1275;139275;-60
2022/01/18 21:38:45;;;;;;;26.60;10.90;;;;;;;1.63;62.79;100792.77;221128;1276;139015;-59
2022/01/18 21:43:47;;;;;;;31.10;12.20;;;;;;;1.62;62.75;100802.21;221352;1276;139673;-60
2022/01/18 21:48:52;;;;;;;26.90;12.40;;;;;;;1.60;62.84;100797.15;221275;1276;139702;-60
2022/01/18 21:53:55;;;;;;;33.50;14.00;;;;;;;1.62;62.92;100798.71;221117;1276;139091;-60
2022/01/18 21:58:59;;;;;;;32.60;15.60;;;;;;;1.61;62.92;100798.02;221192;1276;138860;-60
2022/01/18 22:04:03;;;;;;;42.60;18.00;;;;;;;1.57;62.98;100791.20;221534;1276;139144;-59
2022/01/18 22:09:06;;;;;;;37.60;18.20;;;;;;;1.53;63.14;100791.52;221313;1276;140540;-60
2022/01/18 22:14:09;;;;;;;47.40;19.90;;;;;;;1.55;63.17;100786.63;221328;1276;140503;-60
2022/01/18 22:19:12;;;;;;;44.40;18.20;;;;;;;1.57;63.31;100786.64;221397;1276;139902;-56
2022/01/18 22:24:15;;;;;;;39.80;17.70;;;;;;;1.59;63.37;100780.54;221435;1276;139064;-58
2022/01/18 22:29:18;;;;;;;36.60;16.70;;;;;;;1.55;63.20;100775.45;221350;1276;139504;-60
2022/01/18 22:34:21;;;;;;;37.10;18.00;;;;;;;1.47;63.31;100762.46;221026;1276;139984;-60
2022/01/18 22:39:24;;;;;;;41.00;18.50;;;;;;;1.40;63.41;100749.34;221388;1276;139101;-58
2022/01/18 22:44:29;;;;;;;39.10;17.40;;;;;;;1.29;63.25;100755.24;221452;1276;139222;-59
2022/01/18 22:49:34;;;;;;;45.10;18.10;;;;;;;1.20;63.52;100748.05;221146;1276;141841;-59
2022/01/18 22:54:39;;;;;;;37.30;15.10;;;;;;;1.13;63.51;100748.55;221267;1276;139425;-59
2022/01/18 22:59:42;;;;;;;33.60;15.00;;;;;;;1.03;63.64;100749.56;221359;1276;139252;-59
2022/01/18 23:04:47;;;;;;;35.40;15.40;;;;;;;0.95;63.74;100749.70;221239;1276;139631;-59
2022/01/18 23:09:50;;;;;;;29.50;13.70;;;;;;;0.88;63.63;100743.02;221318;1275;139690;-60
2022/01/18 23:14:53;;;;;;;36.80;13.60;;;;;;;0.84;63.79;100742.83;221163;1276;140618;-59
2022/01/18 23:19:56;;;;;;;38.60;14.30;;;;;;;0.82;63.96;100740.73;221242;1276;139471;-59
2022/01/18 23:24:59;;;;;;;37.70;14.70;;;;;;;0.80;64.09;100731.10;221470;1276;141035;-60
2022/01/18 23:30:03;;;;;;;32.10;14.40;;;;;;;0.77;63.96;100722.52;221411;1276;141564;-59
2022/01/18 23:35:07;;;;;;;39.20;15.10;;;;;;;0.77;64.12;100726.55;221367;1275;139880;-60
2022/01/18 23:45:34;;;;;;;34.70;13.70;;;;;;;0.80;64.23;100720.61;221604;1276;139254;-60
2022/01/18 23:50:37;;;;;;;36.20;13.20;;;;;;;0.81;64.34;100712.94;221341;1275;139776;-58
2022/01/18 23:55:41;;;;;;;30.80;12.00;;;;;;;0.83;64.43;100702.46;221141;1276;139822;-59
